createdAt,value
2022-10-28T00:02:15.517Z,94946.47
2022-10-28T00:04:43.133Z,94941.06
2022-10-28T00:07:12.027Z,94944.03
2022-10-28T00:09:39.574Z,94945.69
2022-10-28T00:12:07.308Z,94944.84
2022-10-28T00:14:34.871Z,94947.56
2022-10-28T00:17:02.462Z,94939.41
2022-10-28T00:19:30.630Z,94945.91
2022-10-28T00:21:58.209Z,94945.91
2022-10-28T00:24:27.325Z,94951.34
2022-10-28T00:26:54.840Z,94950.53
2022-10-28T00:29:22.577Z,94947.00
2022-10-28T00:31:50.814Z,94945.13
2022-10-28T00:34:19.616Z,94935.34
2022-10-28T00:36:47.482Z,94944.53
2022-10-28T00:39:16.196Z,94937.22
2022-10-28T00:41:46.708Z,94939.94
2022-10-28T00:44:51.914Z,94941.81
2022-10-28T00:47:29.720Z,94940.75
2022-10-28T00:49:58.628Z,94941.00
2022-10-28T00:52:27.714Z,94935.56
2022-10-28T00:54:55.235Z,94936.66
2022-10-28T00:57:26.067Z,94933.09
2022-10-28T00:59:54.110Z,94932.03
2022-10-28T01:02:21.890Z,94924.16
2022-10-28T01:04:49.552Z,94926.88
2022-10-28T01:07:17.173Z,94928.75
2022-10-28T01:09:44.732Z,94926.88
2022-10-28T01:12:17.498Z,94928.75
2022-10-28T01:14:52.864Z,94920.88
2022-10-28T01:17:28.653Z,94927.94
2022-10-28T01:20:30.357Z,94918.97
2022-10-28T01:22:59.713Z,94914.59
2022-10-28T01:25:50.515Z,94911.91
2022-10-28T01:28:25.136Z,94910.22
2022-10-28T01:31:09.401Z,94919.19
2022-10-28T01:33:37.363Z,94918.38
2022-10-28T01:36:08.553Z,94909.19
2022-10-28T01:38:37.079Z,94915.44
2022-10-28T01:41:08.525Z,94914.59
2022-10-28T01:43:39.412Z,94919.19
2022-10-28T01:46:09.314Z,94914.81
2022-10-28T01:48:38.984Z,94913.78
2022-10-28T01:51:08.817Z,94912.09
2022-10-28T01:53:38.124Z,94916.72
2022-10-28T01:56:08.537Z,94912.09
2022-10-28T01:58:36.082Z,94915.09
2022-10-28T02:01:04.763Z,94915.09
2022-10-28T02:03:33.770Z,94910.47
2022-10-28T02:06:01.944Z,94911.53
2022-10-28T02:08:44.704Z,94908.81
2022-10-28T02:11:20.978Z,94902.59
2022-10-28T02:13:52.785Z,94905.03
2022-10-28T02:16:22.434Z,94903.41
2022-10-28T02:18:55.470Z,94901.75
2022-10-28T02:21:26.272Z,94899.03
2022-10-28T02:23:54.362Z,94890.91
2022-10-28T02:26:23.030Z,94894.69
2022-10-28T02:28:51.808Z,94883.84
2022-10-28T02:31:22.061Z,94892.81
2022-10-28T02:33:51.313Z,94893.63
2022-10-28T02:36:20.229Z,94893.88
2022-10-28T02:38:49.061Z,94891.97
2022-10-28T02:41:18.503Z,94893.88
2022-10-28T02:43:46.044Z,94893.06
2022-10-28T02:46:13.611Z,94890.34
2022-10-28T02:48:42.031Z,94892.25
2022-10-28T02:51:11.466Z,94886.00
2022-10-28T02:53:45.977Z,94895.78
2022-10-28T02:56:13.537Z,94898.47
2022-10-28T02:58:41.229Z,94896.00
2022-10-28T03:01:09.000Z,94894.13
2022-10-28T03:03:36.681Z,94900.63
2022-10-28T03:06:04.465Z,94898.72
2022-10-28T03:08:32.072Z,94900.63
2022-10-28T03:11:00.965Z,94902.50
2022-10-28T03:13:28.493Z,94895.19
2022-10-28T03:15:56.141Z,94897.09
2022-10-28T03:18:23.686Z,94893.56
2022-10-28T03:20:54.245Z,94894.38
2022-10-28T03:23:24.350Z,94892.72
2022-10-28T03:25:51.913Z,94898.16
2022-10-28T03:28:20.847Z,94898.16
2022-10-28T03:30:48.416Z,94894.63
2022-10-28T03:33:16.028Z,94894.63
2022-10-28T03:35:43.623Z,94901.94
2022-10-28T03:38:11.249Z,94897.34
2022-10-28T03:40:38.798Z,94899.22
2022-10-28T03:43:06.373Z,94893.00
2022-10-28T03:45:35.275Z,94897.34
2022-10-28T03:48:02.848Z,94895.72
2022-10-28T03:50:30.385Z,94897.59
2022-10-28T03:52:57.957Z,94893.81
2022-10-28T03:55:25.861Z,94894.06
2022-10-28T03:57:53.736Z,94894.06
2022-10-28T04:00:21.681Z,94897.59
2022-10-28T04:02:52.476Z,94894.88
2022-10-28T04:05:20.720Z,94893.25
2022-10-28T04:07:48.312Z,94897.59
2022-10-28T04:10:16.009Z,94899.50
2022-10-28T04:12:43.681Z,94895.72
2022-10-28T04:15:11.560Z,94902.22
2022-10-28T04:17:39.074Z,94892.44
2022-10-28T04:20:09.687Z,94896.78
2022-10-28T04:22:37.231Z,94900.31
2022-10-28T04:25:05.456Z,94894.31
2022-10-28T04:27:33.098Z,94897.03
2022-10-28T04:30:00.696Z,94896.19
2022-10-28T04:32:28.247Z,94897.03
2022-10-28T04:34:55.834Z,94890.75
2022-10-28T04:37:24.802Z,94888.88
2022-10-28T04:39:52.361Z,94898.91
2022-10-28T04:42:19.884Z,94901.63
2022-10-28T04:44:47.434Z,94895.38
2022-10-28T04:47:14.957Z,94889.97
2022-10-28T04:49:42.528Z,94891.03
2022-10-28T04:52:13.349Z,94887.50
2022-10-28T04:54:44.613Z,94884.53
2022-10-28T04:57:12.156Z,94883.69
2022-10-28T04:59:39.737Z,94887.25
2022-10-28T05:02:07.352Z,94888.06
2022-10-28T05:04:35.035Z,94881.00
2022-10-28T05:07:02.586Z,94878.28
2022-10-28T05:09:30.162Z,94881.00
2022-10-28T05:11:59.105Z,94881.25
2022-10-28T05:14:26.705Z,94876.63
2022-10-28T05:16:54.313Z,94876.63
2022-10-28T05:19:21.988Z,94875.84
2022-10-28T05:21:49.524Z,94881.25
2022-10-28T05:24:17.060Z,94880.19
2022-10-28T05:26:44.641Z,94879.63
2022-10-28T05:29:13.635Z,94876.06
2022-10-28T05:31:41.182Z,94877.72
2022-10-28T05:34:09.206Z,94878.53
2022-10-28T05:36:36.889Z,94871.47
2022-10-28T05:39:04.672Z,94876.91
2022-10-28T05:41:35.186Z,94875.84
2022-10-28T05:44:05.850Z,94874.19
2022-10-28T05:46:34.788Z,94872.56
2022-10-28T05:49:02.345Z,94876.06
2022-10-28T05:51:29.865Z,94872.56
2022-10-28T05:53:57.429Z,94877.16
2022-10-28T05:56:25.393Z,94883.41
2022-10-28T05:58:52.987Z,94883.41
2022-10-28T06:01:20.601Z,94886.13
2022-10-28T06:03:49.600Z,94879.84
2022-10-28T06:06:17.181Z,94876.34
2022-10-28T06:08:44.696Z,94874.44
2022-10-28T06:11:10.751Z,94880.09
2022-10-28T06:13:38.383Z,94882.56
2022-10-28T06:16:06.232Z,94866.53
2022-10-28T06:18:34.070Z,94875.50
2022-10-28T06:21:03.630Z,94883.66
2022-10-28T06:23:31.165Z,94880.94
2022-10-28T06:25:59.195Z,94883.09
2022-10-28T06:28:26.867Z,94894.75
2022-10-28T06:30:54.441Z,94895.56
2022-10-28T06:33:21.965Z,94899.34
2022-10-28T06:35:49.492Z,94906.44
2022-10-28T06:38:19.017Z,94908.31
2022-10-28T06:40:49.059Z,94905.59
2022-10-28T06:43:19.872Z,94912.09
2022-10-28T06:45:52.121Z,94911.28
2022-10-28T06:48:21.208Z,94919.41
2022-10-28T06:50:48.776Z,94930.28
2022-10-28T06:53:16.501Z,94931.09
2022-10-28T06:55:48.787Z,94930.28
2022-10-28T06:58:16.470Z,94939.22
2022-10-28T07:00:44.061Z,94926.72
2022-10-28T07:03:11.827Z,94924.28
2022-10-28T07:05:39.346Z,94932.41
2022-10-28T07:08:07.138Z,94935.13
2022-10-28T07:10:34.904Z,94936.22
2022-10-28T07:13:03.826Z,94937.84
2022-10-28T07:15:31.621Z,94937.00
2022-10-28T07:17:59.848Z,94939.72
2022-10-28T07:20:28.257Z,94946.00
2022-10-28T07:22:58.813Z,94953.28
2022-10-28T07:25:26.806Z,94946.00
2022-10-28T07:27:54.830Z,94944.34
2022-10-28T07:30:24.136Z,94949.78
2022-10-28T07:32:51.995Z,94947.06
2022-10-28T07:35:19.846Z,94950.00
2022-10-28T07:37:47.378Z,94950.00
2022-10-28T07:40:15.023Z,94948.09
2022-10-28T07:42:42.639Z,94944.59
2022-10-28T07:45:10.734Z,94949.19
2022-10-28T07:47:39.969Z,94944.59
2022-10-28T07:50:08.438Z,94947.28
2022-10-28T07:52:36.126Z,94942.94
2022-10-28T07:55:03.926Z,94944.59
2022-10-28T07:57:31.602Z,94938.31
2022-10-28T07:59:59.242Z,94934.81
2022-10-28T08:02:27.002Z,94936.69
2022-10-28T08:04:56.864Z,94939.16
2022-10-28T08:07:24.443Z,94940.22
2022-10-28T08:09:53.262Z,94930.44
2022-10-28T08:12:20.835Z,94932.09
2022-10-28T08:14:48.423Z,94942.94
2022-10-28T08:17:16.003Z,94942.09
2022-10-28T08:19:43.560Z,94940.47
2022-10-28T08:22:12.519Z,94942.94
2022-10-28T08:24:40.207Z,94936.69
2022-10-28T08:27:07.970Z,94939.41
2022-10-28T08:29:35.497Z,94935.88
2022-10-28T08:32:03.062Z,94942.09
2022-10-28T08:34:31.259Z,94942.09
2022-10-28T08:36:58.899Z,94953.78
2022-10-28T08:39:27.791Z,94950.25
2022-10-28T08:41:59.269Z,94951.09
2022-10-28T08:45:06.843Z,94950.25
2022-10-28T08:47:39.809Z,94949.19
2022-10-28T08:50:13.675Z,94952.97
2022-10-28T08:52:43.183Z,94951.09
2022-10-28T08:55:15.351Z,94948.38
2022-10-28T08:57:44.223Z,94952.72
2022-10-28T09:00:19.480Z,94949.19
2022-10-28T09:02:54.959Z,94955.19
2022-10-28T09:05:23.842Z,94941.63
2022-10-28T09:07:51.404Z,94949.19
2022-10-28T09:10:26.355Z,94953.28
2022-10-28T09:12:56.081Z,94948.69
2022-10-28T09:15:29.378Z,94944.09
2022-10-28T09:17:58.241Z,94943.28
2022-10-28T09:20:30.716Z,94946.78
2022-10-28T09:22:59.281Z,94950.34
2022-10-28T09:25:32.529Z,94953.63
2022-10-28T09:28:07.438Z,94952.53
2022-10-28T09:30:40.951Z,94956.06
2022-10-28T09:33:15.235Z,94953.34
2022-10-28T09:35:44.352Z,94958.78
2022-10-28T09:38:16.044Z,94956.06
2022-10-28T09:40:46.424Z,94955.81
2022-10-28T09:43:19.497Z,94953.13
2022-10-28T09:45:48.042Z,94955.03
2022-10-28T09:48:17.909Z,94953.13
2022-10-28T09:50:45.531Z,94957.47
2022-10-28T09:53:15.882Z,94961.03
2022-10-28T09:55:44.806Z,94953.69
2022-10-28T09:58:12.452Z,94952.88
2022-10-28T10:00:40.002Z,94960.75
2022-10-28T10:03:07.582Z,94962.38
2022-10-28T10:05:38.420Z,94965.09
2022-10-28T10:08:06.666Z,94958.59
2022-10-28T10:10:37.484Z,94956.72
2022-10-28T10:13:06.465Z,94953.19
2022-10-28T10:15:36.796Z,94962.72
2022-10-28T10:18:05.823Z,94951.63
2022-10-28T10:20:47.747Z,94958.69
2022-10-28T10:23:23.375Z,94956.53
2022-10-28T10:25:55.571Z,94943.53
2022-10-28T10:28:24.508Z,94943.81
2022-10-28T10:30:53.451Z,94937.31
2022-10-28T10:33:21.839Z,94937.31
2022-10-28T10:35:59.038Z,94943.53
2022-10-28T10:38:28.171Z,94942.75
2022-10-28T10:40:55.773Z,94941.91
2022-10-28T10:43:32.113Z,94936.47
2022-10-28T10:46:04.484Z,94932.13
2022-10-28T10:48:33.833Z,94938.38
2022-10-28T10:51:05.846Z,94941.91
2022-10-28T10:53:33.412Z,94932.97
2022-10-28T10:56:01.718Z,94923.97
2022-10-28T10:58:32.012Z,94922.91
2022-10-28T11:01:00.727Z,94921.25
2022-10-28T11:03:29.313Z,94913.13
2022-10-28T11:06:18.383Z,94915.84
2022-10-28T11:08:45.353Z,94910.41
2022-10-28T11:11:14.459Z,94906.06
2022-10-28T11:13:46.143Z,94906.06
2022-10-28T11:16:21.794Z,94900.63
2022-10-28T11:18:50.267Z,94896.84
2022-10-28T11:21:42.957Z,94896.00
2022-10-28T11:24:22.127Z,94888.69
2022-10-28T11:26:52.878Z,94888.69
2022-10-28T11:29:21.812Z,94892.25
2022-10-28T11:32:06.667Z,94889.25
2022-10-28T11:35:00.121Z,94881.97
2022-10-28T11:37:33.554Z,94881.97
2022-10-28T11:40:06.315Z,94874.63
2022-10-28T11:42:36.688Z,94876.25
2022-10-28T11:45:07.172Z,94876.25
2022-10-28T11:48:07.847Z,94873.53
2022-10-28T11:50:39.739Z,94872.47
2022-10-28T11:53:27.427Z,94871.66
2022-10-28T11:55:57.235Z,94872.47
2022-10-28T11:58:31.280Z,94869.75
2022-10-28T12:01:07.815Z,94865.16
2022-10-28T12:03:44.712Z,94866.81
2022-10-28T12:06:16.785Z,94869.50
2022-10-28T12:08:52.370Z,94866.81
2022-10-28T12:11:25.187Z,94864.91
2022-10-28T12:13:57.905Z,94864.91
2022-10-28T12:16:30.920Z,94861.38
2022-10-28T12:19:00.116Z,94871.41
2022-10-28T12:21:31.130Z,94865.97
2022-10-28T12:23:59.228Z,94865.97
2022-10-28T12:26:34.970Z,94864.09
2022-10-28T12:29:03.297Z,94872.22
2022-10-28T12:31:33.684Z,94867.63
2022-10-28T12:34:02.354Z,94858.66
2022-10-28T12:36:33.661Z,94861.38
2022-10-28T12:39:02.634Z,94862.44
2022-10-28T12:41:44.477Z,94865.97
2022-10-28T12:44:12.952Z,94868.69
2022-10-28T12:49:23.358Z,94867.63
2022-10-28T12:51:50.904Z,94865.75
2022-10-28T12:54:22.274Z,94866.59
2022-10-28T12:56:52.694Z,94861.97
2022-10-28T12:59:24.051Z,94865.75
2022-10-28T13:01:53.091Z,94868.22
2022-10-28T13:04:20.764Z,94860.09
2022-10-28T13:06:58.773Z,94863.59
2022-10-28T13:09:37.968Z,94860.09
2022-10-28T13:12:35.987Z,94858.19
2022-10-28T13:15:35.287Z,94851.94
2022-10-28T13:18:16.447Z,94851.66
2022-10-28T13:20:47.571Z,94859.00
2022-10-28T13:23:22.325Z,94859.81
2022-10-28T13:25:57.250Z,94857.09
2022-10-28T13:28:25.707Z,94857.94
2022-10-28T13:30:54.816Z,94863.38
2022-10-28T13:33:25.281Z,94860.66
2022-10-28T13:38:26.348Z,94866.06
2022-10-28T13:41:11.664Z,94859.81
2022-10-28T13:43:59.394Z,94855.22
2022-10-28T13:47:01.395Z,94854.16
2022-10-28T13:49:30.553Z,94855.22
2022-10-28T13:52:01.494Z,94847.06
2022-10-28T13:54:31.533Z,94848.97
2022-10-28T13:57:03.850Z,94846.25
2022-10-28T13:59:50.900Z,94848.16
2022-10-28T14:02:35.319Z,94848.97
2022-10-28T14:05:06.219Z,94847.31
2022-10-28T14:07:34.579Z,94851.66
2022-10-28T14:10:19.249Z,94853.59
2022-10-28T14:12:48.679Z,94852.75
2022-10-28T14:15:19.130Z,94850.31
2022-10-28T14:17:48.751Z,94852.75
2022-10-28T14:20:29.513Z,94849.22
2022-10-28T14:22:57.206Z,94852.75
2022-10-28T14:26:00.078Z,94850.31
2022-10-28T14:28:56.071Z,94854.91
2022-10-28T14:31:44.832Z,94861.97
2022-10-28T14:34:32.006Z,94857.63
2022-10-28T14:37:04.264Z,94860.31
2022-10-28T14:39:38.951Z,94862.22
2022-10-28T14:42:21.872Z,94861.38
2022-10-28T14:45:01.799Z,94866.81
2022-10-28T14:47:44.855Z,94856.78
2022-10-28T14:50:17.619Z,94863.25
2022-10-28T14:52:46.588Z,94862.44
2022-10-28T14:55:21.482Z,94864.91
2022-10-28T14:57:49.032Z,94867.88
2022-10-28T15:00:18.633Z,94874.09
2022-10-28T15:02:46.606Z,94873.31
2022-10-28T15:05:15.985Z,94865.16
2022-10-28T15:07:43.533Z,94867.88
2022-10-28T15:10:19.402Z,94867.03
2022-10-28T15:12:48.852Z,94864.31
2022-10-28T15:15:18.426Z,94867.03
2022-10-28T15:17:46.005Z,94865.41
2022-10-28T15:20:19.052Z,94864.59
2022-10-28T15:22:47.081Z,94858.34
2022-10-28T15:25:15.189Z,94868.13
2022-10-28T15:27:46.464Z,94864.59
2022-10-28T15:30:15.596Z,94869.19
2022-10-28T15:32:43.156Z,94867.56
2022-10-28T15:35:37.998Z,94869.19
2022-10-28T15:38:25.631Z,94865.69
2022-10-28T15:40:53.196Z,94856.69
2022-10-28T15:43:23.178Z,94856.69
2022-10-28T15:45:50.722Z,94855.91
2022-10-28T15:48:21.518Z,94861.31
2022-10-28T15:51:11.033Z,94864.03
2022-10-28T15:53:39.795Z,94856.97
2022-10-28T15:56:24.050Z,94858.84
2022-10-28T15:59:15.641Z,94859.69
2022-10-28T16:01:43.262Z,94863.44
2022-10-28T16:04:44.815Z,94854.50
2022-10-28T16:07:12.371Z,94857.22
2022-10-28T16:09:44.192Z,94864.28
2022-10-28T16:12:14.420Z,94861.81
2022-10-28T16:14:43.592Z,94862.88
2022-10-28T16:17:15.346Z,94866.44
2022-10-28T16:19:45.423Z,94865.59
2022-10-28T16:22:13.812Z,94860.16
2022-10-28T16:24:41.423Z,94866.44
2022-10-28T16:27:19.538Z,94859.38
2022-10-28T16:29:48.606Z,94862.06
2022-10-28T16:32:16.575Z,94864.78
2022-10-28T16:34:44.178Z,94863.16
2022-10-28T16:37:20.580Z,94860.44
2022-10-28T16:39:48.157Z,94863.94
2022-10-28T16:42:15.839Z,94870.47
2022-10-28T16:44:43.423Z,94867.75
2022-10-28T16:47:13.677Z,94863.94
2022-10-28T16:49:41.268Z,94865.91
2022-10-28T16:52:12.925Z,94875.19
2022-10-28T16:54:40.476Z,94871.81
2022-10-28T16:57:08.032Z,94874.34
2022-10-28T16:59:35.572Z,94868.72
2022-10-28T17:02:03.235Z,94873.13
2022-10-28T17:04:32.238Z,94878.59
2022-10-28T17:06:59.826Z,94878.41
2022-10-28T17:09:27.383Z,94877.91
2022-10-28T17:11:55.036Z,94879.53
2022-10-28T17:14:22.591Z,94886.63
2022-10-28T17:16:50.248Z,94885.78
2022-10-28T17:19:17.810Z,94883.06
2022-10-28T17:21:51.446Z,94879.22
2022-10-28T17:24:20.280Z,94892.25
2022-10-28T17:26:47.857Z,94886.25
2022-10-28T17:29:15.471Z,94890.28
2022-10-28T17:31:43.042Z,94885.09
2022-10-28T17:34:10.603Z,94886.47
2022-10-28T17:36:38.144Z,94885.88
2022-10-28T17:39:11.145Z,94883.66
2022-10-28T17:41:41.255Z,94885.56
2022-10-28T17:44:08.854Z,94882.28
2022-10-28T17:46:36.399Z,94886.06
2022-10-28T17:49:08.398Z,94883.63
2022-10-28T17:51:36.857Z,94883.84
2022-10-28T17:54:06.047Z,94893.06
2022-10-28T17:56:34.983Z,94884.38
2022-10-28T17:59:02.550Z,94884.63
2022-10-28T18:01:30.531Z,94879.47
2022-10-28T18:03:58.287Z,94879.47
2022-10-28T18:06:26.008Z,94882.41
2022-10-28T18:08:54.222Z,94888.91
2022-10-28T18:11:21.952Z,94879.13
2022-10-28T18:13:52.812Z,94876.41
2022-10-28T18:16:21.549Z,94882.41
2022-10-28T18:18:49.139Z,94874.59
2022-10-28T18:21:16.718Z,94884.41
2022-10-28T18:23:44.320Z,94881.78
2022-10-28T18:26:13.609Z,94883.47
2022-10-28T18:28:41.691Z,94885.97
2022-10-28T18:31:11.408Z,94883.91
2022-10-28T18:33:39.295Z,94884.78
2022-10-28T18:36:08.059Z,94890.00
2022-10-28T18:38:35.618Z,94893.00
2022-10-28T18:41:03.164Z,94881.38
2022-10-28T18:43:30.750Z,94884.16
2022-10-28T18:46:01.338Z,94897.78
2022-10-28T18:48:30.676Z,94892.66
2022-10-28T18:50:58.532Z,94886.69
2022-10-28T18:53:26.109Z,94893.25
2022-10-28T18:55:53.686Z,94892.16
2022-10-28T18:58:21.297Z,94884.34
2022-10-28T19:00:48.864Z,94891.19
2022-10-28T19:03:19.052Z,94891.75
2022-10-28T19:05:48.047Z,94894.22
2022-10-28T19:08:15.821Z,94902.94
2022-10-28T19:10:43.404Z,94896.41
2022-10-28T19:13:10.965Z,94895.31
2022-10-28T19:15:42.046Z,94894.00
2022-10-28T19:18:09.739Z,94885.84
2022-10-28T19:20:37.275Z,94888.84
2022-10-28T19:23:06.262Z,94899.47
2022-10-28T19:25:33.872Z,94897.59
2022-10-28T19:28:01.790Z,94900.03
2022-10-28T19:30:29.385Z,94902.50
2022-10-28T19:32:57.339Z,94904.13
2022-10-28T19:35:25.115Z,94905.53
2022-10-28T19:37:53.444Z,94903.59
2022-10-28T19:40:22.405Z,94904.44
2022-10-28T19:42:53.778Z,94906.63
2022-10-28T19:45:21.733Z,94900.66
2022-10-28T19:47:49.889Z,94903.38
2022-10-28T19:50:17.576Z,94900.91
2022-10-28T19:52:45.168Z,94898.19
2022-10-28T19:55:15.040Z,94897.16
2022-10-28T19:57:45.678Z,94894.16
2022-10-28T20:00:15.798Z,94890.34
2022-10-28T20:02:43.539Z,94896.63
2022-10-28T20:05:11.321Z,94898.25
2022-10-28T20:07:38.876Z,94897.41
2022-10-28T20:10:07.319Z,94891.97
2022-10-28T20:12:34.939Z,94894.97
2022-10-28T20:15:04.100Z,94898.47
2022-10-28T20:17:31.924Z,94908.25
2022-10-28T20:19:59.797Z,94902.75
2022-10-28T20:22:27.390Z,94901.88
2022-10-28T20:24:54.991Z,94901.84
2022-10-28T20:27:22.850Z,94891.75
2022-10-28T20:29:50.445Z,94901.47
2022-10-28T20:32:21.426Z,94904.13
2022-10-28T20:34:48.983Z,94903.00
2022-10-28T20:37:16.628Z,94902.69
2022-10-28T20:39:44.180Z,94907.84
2022-10-28T20:42:11.715Z,94905.91
2022-10-28T20:44:39.231Z,94913.50
2022-10-28T20:47:06.775Z,94910.47
2022-10-28T20:49:35.651Z,94905.53
2022-10-28T20:52:03.255Z,94904.16
2022-10-28T20:54:30.795Z,94908.19
2022-10-28T20:56:58.331Z,94901.34
2022-10-28T20:59:25.994Z,94900.00
2022-10-28T21:01:53.591Z,94904.88
2022-10-28T21:04:21.460Z,94905.94
2022-10-28T21:06:50.366Z,94907.25
2022-10-28T21:09:17.926Z,94903.72
2022-10-28T21:11:45.608Z,94904.22
2022-10-28T21:14:13.201Z,94902.59
2022-10-28T21:16:40.931Z,94903.91
2022-10-28T21:19:08.498Z,94902.28
2022-10-28T21:21:36.039Z,94904.44
2022-10-28T21:24:05.626Z,94899.25
2022-10-28T21:26:33.195Z,94903.03
2022-10-28T21:29:00.731Z,94896.81
2022-10-28T21:31:28.292Z,94897.03
2022-10-28T21:33:56.037Z,94904.38
2022-10-28T21:36:23.614Z,94900.03
2022-10-28T21:38:54.239Z,94901.09
2022-10-28T21:41:23.328Z,94900.28
2022-10-28T21:43:51.597Z,94898.63
2022-10-28T21:46:19.429Z,94899.72
2022-10-28T21:48:47.036Z,94901.59
2022-10-28T21:51:15.978Z,94896.44
2022-10-28T21:53:43.713Z,94895.59
2022-10-28T21:56:16.524Z,94893.97
2022-10-28T21:58:46.387Z,94888.78
2022-10-28T22:01:14.822Z,94888.78
2022-10-28T22:03:42.505Z,94893.63
2022-10-28T22:06:10.239Z,94896.34
2022-10-28T22:08:37.837Z,94899.06
2022-10-28T22:11:06.640Z,94892.84
2022-10-28T22:13:34.286Z,94890.38
2022-10-28T22:16:04.179Z,94889.28
2022-10-28T22:18:32.801Z,94898.78
2022-10-28T22:21:04.679Z,94894.41
2022-10-28T22:23:32.254Z,94886.25
2022-10-28T22:26:01.806Z,94888.41
2022-10-28T22:28:29.575Z,94895.47
2022-10-28T22:30:59.579Z,94889.47
2022-10-28T22:33:28.586Z,94888.41
2022-10-28T22:35:59.451Z,94886.75
2022-10-28T22:38:27.222Z,94889.47
2022-10-28T22:41:04.928Z,94890.56
2022-10-28T22:43:32.602Z,94883.50
2022-10-28T22:46:00.300Z,94888.91
2022-10-28T22:48:29.268Z,94888.91
2022-10-28T22:50:56.851Z,94894.34
2022-10-28T22:53:24.517Z,94881.84
2022-10-28T22:55:53.234Z,94876.66
2022-10-28T22:58:20.805Z,94882.09
2022-10-28T23:00:48.378Z,94882.91
2022-10-28T23:03:16.248Z,94884.00
2022-10-28T23:05:45.150Z,94874.22
2022-10-28T23:08:15.183Z,94876.94
2022-10-28T23:10:42.781Z,94881.53
2022-10-28T23:13:12.452Z,94882.38
2022-10-28T23:15:40.075Z,94875.28
2022-10-28T23:18:07.670Z,94874.47
2022-10-28T23:20:35.586Z,94874.47
2022-10-28T23:23:04.649Z,94867.41
2022-10-28T23:25:32.199Z,94872.81
2022-10-28T23:27:59.800Z,94875.53
2022-10-28T23:30:27.361Z,94867.41
2022-10-28T23:32:57.838Z,94868.47
2022-10-28T23:35:25.526Z,94871.19
2022-10-28T23:37:53.498Z,94865.75
2022-10-28T23:40:22.706Z,94873.06
2022-10-28T23:42:50.284Z,94875.78
2022-10-28T23:45:17.824Z,94874.09
2022-10-28T23:47:45.484Z,94872.22
2022-10-28T23:50:14.782Z,94871.41
2022-10-28T23:52:42.454Z,94877.66
2022-10-28T23:55:10.440Z,94876.00
2022-10-28T23:57:39.406Z,94878.72
